createdAt,value
2022-07-31T00:02:08.798Z,18.10
2022-07-31T00:04:35.852Z,18.10
2022-07-31T00:07:03.274Z,18.20
2022-07-31T00:09:53.681Z,18.20
2022-07-31T00:12:17.807Z,18.20
2022-07-31T00:14:45.145Z,18.20
2022-07-31T00:17:12.027Z,18.00
2022-07-31T00:19:39.081Z,18.00
2022-07-31T00:22:05.976Z,18.00
2022-07-31T00:24:32.874Z,18.00
2022-07-31T00:27:00.181Z,17.90
2022-07-31T00:29:27.391Z,17.80
2022-07-31T00:31:54.263Z,17.80
2022-07-31T00:34:21.072Z,17.80
2022-07-31T00:36:47.912Z,17.60
2022-07-31T00:39:15.681Z,17.60
2022-07-31T00:41:45.814Z,17.50
2022-07-31T00:44:14.386Z,17.40
2022-07-31T00:46:42.101Z,17.40
2022-07-31T00:49:10.271Z,17.40
2022-07-31T00:51:38.099Z,17.40
2022-07-31T00:54:05.767Z,17.40
2022-07-31T00:56:32.913Z,17.30
2022-07-31T00:59:00.149Z,17.10
2022-07-31T01:01:27.876Z,17.10
2022-07-31T01:03:54.994Z,17.20
2022-07-31T01:06:21.935Z,17.20
2022-07-31T01:08:49.520Z,17.20
2022-07-31T01:11:24.777Z,17.10
2022-07-31T01:13:56.703Z,17.10
2022-07-31T01:16:27.638Z,17.00
2022-07-31T01:18:56.949Z,17.00
2022-07-31T01:21:39.672Z,17.10
2022-07-31T01:24:39.312Z,17.00
2022-07-31T01:27:20.642Z,17.10
2022-07-31T01:29:53.629Z,17.10
2022-07-31T01:32:27.467Z,17.10
2022-07-31T01:35:07.926Z,17.10
2022-07-31T01:37:43.844Z,17.20
2022-07-31T01:40:27.626Z,17.20
2022-07-31T01:43:01.966Z,17.20
2022-07-31T01:45:30.863Z,17.10
2022-07-31T01:47:59.517Z,17.00
2022-07-31T01:50:42.618Z,17.10
2022-07-31T01:53:12.821Z,17.10
2022-07-31T01:56:02.984Z,17.00
2022-07-31T01:58:32.426Z,17.10
2022-07-31T02:01:05.588Z,17.10
2022-07-31T02:03:44.162Z,17.00
2022-07-31T02:06:19.083Z,17.00
2022-07-31T02:08:49.080Z,17.00
2022-07-31T02:11:18.657Z,17.00
2022-07-31T02:13:47.202Z,17.00
2022-07-31T02:16:16.453Z,16.90
2022-07-31T02:18:43.636Z,16.90
2022-07-31T02:21:15.614Z,16.90
2022-07-31T02:23:44.640Z,16.90
2022-07-31T02:26:15.697Z,16.90
2022-07-31T02:28:44.915Z,17.00
2022-07-31T02:31:14.904Z,17.00
2022-07-31T02:33:46.382Z,16.90
2022-07-31T02:36:17.876Z,16.90
2022-07-31T02:38:45.375Z,16.90
2022-07-31T02:41:14.482Z,16.80
2022-07-31T02:43:42.615Z,16.80
2022-07-31T02:46:28.103Z,16.80
2022-07-31T02:48:56.737Z,16.80
2022-07-31T02:51:24.346Z,16.80
2022-07-31T02:53:52.030Z,16.80
2022-07-31T02:56:22.200Z,16.80
2022-07-31T02:58:49.145Z,16.70
2022-07-31T03:01:26.985Z,16.70
2022-07-31T03:03:55.753Z,16.70
2022-07-31T03:06:22.636Z,16.60
2022-07-31T03:08:49.607Z,16.60
2022-07-31T03:11:20.205Z,16.60
2022-07-31T03:13:47.555Z,16.60
2022-07-31T03:16:15.050Z,16.60
2022-07-31T03:18:42.528Z,16.60
2022-07-31T03:21:11.793Z,16.60
2022-07-31T03:23:39.125Z,16.50
2022-07-31T03:26:10.735Z,16.50
2022-07-31T03:28:38.387Z,16.60
2022-07-31T03:31:05.278Z,16.50
2022-07-31T03:33:32.112Z,16.50
2022-07-31T03:35:59.240Z,16.60
2022-07-31T03:38:40.993Z,16.60
2022-07-31T03:41:18.052Z,16.60
2022-07-31T03:43:48.581Z,16.60
2022-07-31T03:46:22.321Z,16.70
2022-07-31T03:48:52.551Z,16.80
2022-07-31T03:51:20.810Z,16.80
2022-07-31T03:53:49.434Z,16.80
2022-07-31T03:56:36.532Z,16.80
2022-07-31T03:59:04.346Z,16.80
2022-07-31T04:01:57.368Z,16.90
2022-07-31T04:04:27.188Z,16.90
2022-07-31T04:06:59.885Z,16.90
2022-07-31T04:09:27.447Z,16.80
2022-07-31T04:11:54.250Z,16.80
2022-07-31T04:14:21.282Z,16.80
2022-07-31T04:16:48.345Z,16.80
2022-07-31T04:19:15.590Z,16.90
2022-07-31T04:21:42.462Z,16.90
2022-07-31T04:24:11.492Z,16.90
2022-07-31T04:27:12.901Z,16.90
2022-07-31T04:29:45.009Z,16.90
2022-07-31T04:32:12.551Z,17.00
2022-07-31T04:34:52.204Z,17.00
2022-07-31T04:37:19.635Z,17.00
2022-07-31T04:39:46.866Z,17.10
2022-07-31T04:42:13.725Z,17.10
2022-07-31T04:44:42.025Z,17.00
2022-07-31T04:47:08.890Z,17.00
2022-07-31T04:49:41.743Z,17.10
2022-07-31T04:52:09.157Z,17.20
2022-07-31T04:54:38.899Z,17.10
2022-07-31T04:57:08.240Z,17.20
2022-07-31T04:59:58.201Z,17.10
2022-07-31T05:02:22.144Z,17.10
2022-07-31T05:04:56.455Z,17.10
2022-07-31T05:07:23.807Z,17.20
2022-07-31T05:10:49.254Z,17.30
2022-07-31T05:13:16.290Z,17.40
2022-07-31T05:15:43.639Z,17.70
2022-07-31T05:18:12.803Z,17.80
2022-07-31T05:20:58.244Z,17.90
2022-07-31T05:23:38.219Z,18.10
2022-07-31T05:26:17.061Z,18.30
2022-07-31T05:28:44.526Z,18.50
2022-07-31T05:31:13.886Z,18.60
2022-07-31T05:33:41.126Z,18.80
2022-07-31T05:36:08.051Z,18.90
2022-07-31T05:38:35.060Z,19.10
2022-07-31T05:41:22.242Z,19.10
2022-07-31T05:44:00.992Z,19.20
2022-07-31T05:46:32.969Z,19.30
2022-07-31T05:49:00.663Z,19.40
2022-07-31T05:51:27.856Z,19.40
2022-07-31T05:53:54.798Z,19.40
2022-07-31T05:56:47.961Z,19.50
2022-07-31T05:59:18.169Z,19.60
2022-07-31T06:01:46.524Z,19.60
2022-07-31T06:04:13.494Z,19.60
2022-07-31T06:06:42.732Z,19.70
2022-07-31T06:09:09.555Z,19.60
2022-07-31T06:11:40.223Z,19.60
2022-07-31T06:14:07.320Z,19.70
2022-07-31T06:17:07.890Z,19.70
2022-07-31T06:19:36.659Z,19.90
2022-07-31T06:22:04.172Z,19.90
2022-07-31T06:24:34.531Z,20.10
2022-07-31T06:27:03.333Z,20.20
2022-07-31T06:29:41.675Z,20.30
2022-07-31T06:32:09.726Z,20.40
2022-07-31T06:34:36.983Z,20.50
2022-07-31T06:37:04.238Z,20.60
2022-07-31T06:39:54.496Z,20.70
2022-07-31T06:42:48.692Z,20.80
2022-07-31T06:45:52.030Z,20.80
2022-07-31T06:48:39.550Z,21.00
2022-07-31T06:53:57.446Z,21.10
2022-07-31T06:56:24.400Z,21.20
2022-07-31T06:58:51.243Z,21.40
2022-07-31T07:01:18.359Z,21.50
2022-07-31T07:03:45.723Z,21.60
2022-07-31T07:06:12.966Z,21.70
2022-07-31T07:08:39.904Z,21.80
2022-07-31T07:11:10.347Z,21.80
2022-07-31T07:13:46.100Z,21.90
2022-07-31T07:16:16.887Z,22.00
2022-07-31T07:18:44.200Z,22.10
2022-07-31T07:21:12.291Z,22.10
2022-07-31T07:23:40.127Z,22.20
2022-07-31T07:26:19.987Z,22.20
2022-07-31T07:28:47.027Z,22.30
2022-07-31T07:31:13.806Z,22.40
2022-07-31T07:33:42.736Z,22.50
2022-07-31T07:36:23.075Z,22.50
2022-07-31T07:38:56.119Z,22.50
2022-07-31T07:41:24.878Z,22.60
2022-07-31T07:43:52.539Z,22.60
2022-07-31T07:46:22.530Z,22.70
2022-07-31T07:48:52.982Z,22.80
2022-07-31T07:51:33.949Z,22.80
2022-07-31T07:54:12.845Z,22.90
2022-07-31T07:56:58.231Z,23.10
2022-07-31T07:59:45.604Z,23.20
2022-07-31T08:02:35.573Z,23.30
2022-07-31T08:05:02.664Z,23.40
2022-07-31T08:07:42.609Z,23.50
2022-07-31T08:10:36.079Z,23.60
2022-07-31T08:13:10.381Z,23.70
2022-07-31T08:15:55.695Z,23.90
2022-07-31T08:18:51.855Z,24.10
2022-07-31T08:21:19.265Z,24.10
2022-07-31T08:23:47.441Z,24.00
2022-07-31T08:26:18.140Z,24.10
2022-07-31T08:28:50.200Z,24.10
2022-07-31T08:31:20.014Z,24.10
2022-07-31T08:34:05.893Z,24.30
2022-07-31T08:36:34.278Z,24.30
2022-07-31T08:39:01.112Z,24.20
2022-07-31T08:41:44.369Z,24.30
2022-07-31T08:44:13.828Z,24.40
2022-07-31T08:46:41.084Z,24.50
2022-07-31T08:49:09.957Z,24.50
2022-07-31T08:51:50.406Z,24.60
2022-07-31T08:54:37.795Z,24.70
2022-07-31T08:57:05.081Z,24.70
2022-07-31T08:59:43.570Z,24.80
2022-07-31T09:02:12.360Z,25.00
2022-07-31T09:04:53.152Z,25.30
2022-07-31T09:07:21.166Z,25.40
2022-07-31T09:09:51.767Z,25.30
2022-07-31T09:12:33.440Z,25.40
2022-07-31T09:15:40.209Z,25.50
2022-07-31T09:18:22.092Z,25.70
2022-07-31T09:21:06.811Z,25.90
2022-07-31T09:23:44.632Z,26.20
2022-07-31T09:26:11.545Z,26.30
2022-07-31T09:28:42.386Z,26.50
2022-07-31T09:31:11.038Z,26.80
2022-07-31T09:33:49.480Z,26.80
2022-07-31T09:36:34.899Z,26.80
2022-07-31T09:39:28.510Z,26.90
2022-07-31T09:42:38.218Z,27.00
2022-07-31T09:45:20.335Z,27.10
2022-07-31T09:47:47.672Z,27.20
2022-07-31T09:50:14.939Z,27.30
2022-07-31T09:52:41.831Z,27.30
2022-07-31T09:55:15.829Z,27.30
2022-07-31T09:57:56.959Z,27.30
2022-07-31T10:00:27.613Z,27.20
2022-07-31T10:02:57.308Z,27.10
2022-07-31T10:05:27.685Z,27.10
2022-07-31T10:08:00.098Z,27.10
2022-07-31T10:10:43.120Z,27.20
2022-07-31T10:13:24.219Z,27.10
2022-07-31T10:15:54.279Z,27.00
2022-07-31T10:18:56.796Z,27.00
2022-07-31T10:21:51.246Z,27.20
2022-07-31T10:24:27.890Z,27.20
2022-07-31T10:27:01.957Z,27.20
2022-07-31T10:29:40.065Z,27.20
2022-07-31T10:32:08.263Z,27.20
2022-07-31T10:34:39.320Z,27.20
2022-07-31T10:37:55.110Z,27.10
2022-07-31T10:40:51.520Z,27.20
2022-07-31T10:43:29.051Z,27.00
2022-07-31T10:46:07.995Z,26.90
2022-07-31T10:49:12.546Z,27.00
2022-07-31T10:52:28.867Z,27.10
2022-07-31T10:55:18.211Z,27.30
2022-07-31T10:58:12.232Z,27.30
2022-07-31T11:01:05.968Z,27.30
2022-07-31T11:04:05.171Z,26.70
2022-07-31T11:07:15.241Z,26.20
2022-07-31T11:10:23.134Z,26.60
2022-07-31T11:13:23.267Z,26.90
2022-07-31T11:16:07.066Z,27.10
2022-07-31T11:19:02.304Z,27.30
2022-07-31T11:21:40.240Z,27.50
2022-07-31T11:24:16.731Z,27.80
2022-07-31T11:26:52.688Z,28.10
2022-07-31T11:30:01.084Z,28.20
2022-07-31T11:32:22.992Z,28.40
2022-07-31T11:34:54.773Z,28.40
2022-07-31T11:37:23.738Z,28.40
2022-07-31T11:39:52.831Z,28.30
2022-07-31T11:42:26.334Z,28.40
2022-07-31T11:45:10.775Z,28.50
2022-07-31T11:48:11.067Z,28.30
2022-07-31T11:50:41.449Z,28.20
2022-07-31T11:53:08.341Z,28.20
2022-07-31T11:55:45.663Z,28.00
2022-07-31T11:58:13.536Z,27.80
2022-07-31T12:00:52.033Z,27.70
2022-07-31T12:03:21.169Z,27.50
2022-07-31T12:05:49.780Z,27.30
2022-07-31T12:08:17.001Z,27.20
2022-07-31T12:10:44.550Z,27.10
2022-07-31T12:13:16.895Z,26.90
2022-07-31T12:16:07.954Z,26.70
2022-07-31T12:18:48.219Z,26.60
2022-07-31T12:21:16.129Z,26.50
2022-07-31T12:23:47.650Z,26.50
2022-07-31T12:26:31.879Z,26.50
2022-07-31T12:29:03.526Z,26.60
2022-07-31T12:31:42.934Z,26.70
2022-07-31T12:34:09.786Z,26.80
2022-07-31T12:36:36.827Z,27.00
2022-07-31T12:39:05.245Z,27.00
2022-07-31T12:41:43.156Z,27.00
2022-07-31T12:44:14.547Z,27.00
2022-07-31T12:46:41.842Z,27.00
2022-07-31T12:49:08.949Z,27.00
2022-07-31T12:51:45.112Z,26.90
2022-07-31T12:54:17.866Z,26.90
2022-07-31T12:56:46.436Z,27.10
2022-07-31T12:59:13.691Z,27.00
2022-07-31T13:01:40.920Z,27.00
2022-07-31T13:04:18.373Z,26.50
2022-07-31T13:06:48.579Z,26.40
2022-07-31T13:09:16.104Z,26.70
2022-07-31T13:11:46.809Z,26.90
2022-07-31T13:14:20.414Z,27.00
2022-07-31T13:16:48.418Z,27.20
2022-07-31T13:19:15.766Z,27.40
2022-07-31T13:21:49.113Z,27.20
2022-07-31T13:24:20.852Z,27.20
2022-07-31T13:26:49.352Z,27.10
2022-07-31T13:29:17.196Z,27.00
2022-07-31T13:31:44.583Z,27.20
2022-07-31T13:34:11.623Z,27.20
2022-07-31T13:36:39.305Z,27.30
2022-07-31T13:39:07.767Z,27.00
2022-07-31T13:41:35.758Z,27.40
2022-07-31T13:44:03.621Z,27.20
2022-07-31T13:46:31.617Z,27.30
2022-07-31T13:48:59.554Z,27.10
2022-07-31T13:51:29.266Z,26.80
2022-07-31T13:53:56.399Z,26.20
2022-07-31T13:56:38.914Z,25.90
2022-07-31T13:59:11.834Z,25.80
2022-07-31T14:02:02.162Z,26.00
2022-07-31T14:04:31.330Z,26.20
2022-07-31T14:07:01.457Z,26.00
2022-07-31T14:09:34.236Z,25.50
2022-07-31T14:12:03.839Z,25.60
2022-07-31T14:14:31.899Z,25.40
2022-07-31T14:16:58.712Z,25.20
2022-07-31T14:19:25.518Z,24.80
2022-07-31T14:22:11.040Z,24.80
2022-07-31T14:24:38.376Z,24.70
2022-07-31T14:27:05.143Z,24.40
2022-07-31T14:29:32.022Z,24.20
2022-07-31T14:32:03.322Z,24.10
2022-07-31T14:34:35.829Z,24.00
2022-07-31T14:37:03.376Z,23.60
2022-07-31T14:39:30.869Z,23.20
2022-07-31T14:41:57.797Z,22.90
2022-07-31T14:44:28.864Z,22.50
2022-07-31T14:46:56.172Z,22.40
2022-07-31T14:49:23.318Z,22.30
2022-07-31T14:51:50.192Z,22.30
2022-07-31T14:54:17.024Z,21.90
2022-07-31T14:57:01.542Z,21.50
2022-07-31T14:59:29.781Z,21.30
2022-07-31T15:01:57.336Z,21.00
2022-07-31T15:04:24.747Z,20.60
2022-07-31T15:07:03.062Z,20.30
2022-07-31T15:09:38.600Z,20.00
2022-07-31T15:12:05.884Z,19.70
2022-07-31T15:14:32.730Z,19.50
2022-07-31T15:16:59.606Z,19.60
2022-07-31T15:19:26.563Z,19.70
2022-07-31T15:22:10.550Z,19.90
2022-07-31T15:24:45.539Z,20.00
2022-07-31T15:27:19.047Z,20.20
2022-07-31T15:30:04.614Z,20.20
2022-07-31T15:32:39.039Z,20.20
2022-07-31T15:35:08.493Z,20.20
2022-07-31T15:37:37.301Z,20.10
2022-07-31T15:40:07.190Z,20.20
2022-07-31T15:42:42.921Z,20.40
2022-07-31T15:45:12.175Z,20.40
2022-07-31T15:47:39.868Z,20.50
2022-07-31T15:50:08.745Z,20.50
2022-07-31T15:52:36.141Z,20.50
2022-07-31T15:55:04.802Z,20.50
2022-07-31T15:57:32.191Z,20.50
2022-07-31T15:59:59.550Z,20.60
2022-07-31T16:02:27.122Z,20.50
2022-07-31T16:04:57.461Z,20.50
2022-07-31T16:08:28.729Z,20.50
2022-07-31T16:10:17.942Z,20.50
2022-07-31T16:12:46.135Z,20.50
2022-07-31T16:15:13.347Z,20.50
2022-07-31T16:17:40.685Z,20.50
2022-07-31T16:20:12.364Z,20.60
2022-07-31T16:22:42.403Z,20.60
2022-07-31T16:25:10.885Z,20.60
2022-07-31T16:27:38.508Z,20.60
2022-07-31T16:30:07.167Z,20.70
2022-07-31T16:32:34.007Z,20.70
2022-07-31T16:35:01.864Z,20.70
2022-07-31T16:37:49.941Z,20.70
2022-07-31T16:40:28.333Z,20.80
2022-07-31T16:42:56.456Z,21.00
2022-07-31T16:45:23.535Z,21.10
2022-07-31T16:47:51.022Z,21.20
2022-07-31T16:50:19.063Z,21.30
2022-07-31T16:52:45.921Z,21.30
2022-07-31T16:55:12.802Z,21.30
2022-07-31T16:57:39.629Z,21.40
2022-07-31T17:00:07.439Z,21.60
2022-07-31T17:02:34.212Z,21.60
2022-07-31T17:05:01.032Z,21.70
2022-07-31T17:07:28.386Z,21.80
2022-07-31T17:09:55.259Z,21.90
2022-07-31T17:12:22.176Z,22.00
2022-07-31T17:14:49.145Z,22.00
2022-07-31T17:17:16.922Z,22.00
2022-07-31T17:19:46.699Z,21.90
2022-07-31T17:22:18.102Z,21.90
2022-07-31T17:24:50.727Z,21.90
2022-07-31T17:27:18.830Z,21.80
2022-07-31T17:29:45.766Z,21.90
2022-07-31T17:32:12.710Z,21.90
2022-07-31T17:34:40.645Z,21.90
2022-07-31T17:37:08.080Z,21.80
2022-07-31T17:39:35.982Z,21.80
2022-07-31T17:42:03.289Z,21.80
2022-07-31T17:44:30.311Z,21.60
2022-07-31T17:46:58.103Z,21.50
2022-07-31T17:49:25.625Z,21.50
2022-07-31T17:51:58.729Z,21.40
2022-07-31T17:54:28.107Z,21.40
2022-07-31T17:56:55.275Z,21.30
2022-07-31T17:59:23.042Z,21.20
2022-07-31T18:01:51.478Z,21.20
2022-07-31T18:04:21.172Z,21.10
2022-07-31T18:06:54.448Z,21.00
2022-07-31T18:09:23.359Z,21.00
2022-07-31T18:11:52.085Z,21.00
2022-07-31T18:14:19.092Z,20.90
2022-07-31T18:16:47.301Z,20.90
2022-07-31T18:19:14.597Z,20.90
2022-07-31T18:21:41.532Z,20.80
2022-07-31T18:24:09.757Z,20.60
2022-07-31T18:26:37.319Z,20.40
2022-07-31T18:29:05.156Z,20.30
2022-07-31T18:31:35.385Z,20.00
2022-07-31T18:34:04.813Z,19.90
2022-07-31T18:36:35.390Z,19.80
2022-07-31T18:39:03.530Z,19.70
2022-07-31T18:41:30.666Z,19.80
2022-07-31T18:43:57.937Z,19.70
2022-07-31T18:46:24.901Z,19.70
2022-07-31T18:48:56.462Z,19.80
2022-07-31T18:51:28.524Z,19.60
2022-07-31T18:53:55.868Z,19.60
2022-07-31T18:56:24.323Z,19.60
2022-07-31T18:58:52.250Z,19.60
2022-07-31T19:01:19.662Z,19.60
2022-07-31T19:03:46.830Z,19.60
2022-07-31T19:06:13.626Z,19.70
2022-07-31T19:08:40.743Z,19.60
2022-07-31T19:11:07.544Z,19.70
2022-07-31T19:13:34.857Z,19.70
2022-07-31T19:16:01.791Z,19.70
2022-07-31T19:18:29.169Z,19.80
2022-07-31T19:21:23.394Z,19.80
2022-07-31T19:23:47.284Z,19.70
2022-07-31T19:26:14.392Z,19.70
2022-07-31T19:28:43.230Z,19.70
2022-07-31T19:31:10.572Z,19.70
2022-07-31T19:33:37.823Z,19.70
2022-07-31T19:36:05.000Z,19.70
2022-07-31T19:38:33.042Z,19.70
2022-07-31T19:41:00.088Z,19.70
2022-07-31T19:43:27.181Z,19.70
2022-07-31T19:46:10.433Z,19.70
2022-07-31T19:48:43.604Z,19.70
2022-07-31T19:51:11.615Z,19.70
2022-07-31T19:53:39.293Z,19.70
2022-07-31T19:56:06.549Z,19.70
2022-07-31T19:58:35.229Z,19.70
2022-07-31T20:01:07.111Z,19.70
2022-07-31T20:03:35.213Z,19.70
2022-07-31T20:06:03.531Z,19.60
2022-07-31T20:08:33.410Z,19.50
2022-07-31T20:11:03.890Z,19.50
2022-07-31T20:13:32.236Z,19.40
2022-07-31T20:15:59.206Z,19.40
2022-07-31T20:18:28.853Z,19.40
2022-07-31T20:21:10.713Z,19.40
2022-07-31T20:23:41.682Z,19.30
2022-07-31T20:26:11.429Z,19.30
2022-07-31T20:28:42.643Z,19.30
2022-07-31T20:31:15.785Z,19.30
2022-07-31T20:33:56.491Z,19.30
2022-07-31T20:36:24.223Z,19.30
2022-07-31T20:38:51.189Z,19.20
2022-07-31T20:41:18.616Z,19.20
2022-07-31T20:43:45.464Z,19.20
2022-07-31T20:46:12.272Z,19.10
2022-07-31T20:48:39.268Z,19.10
2022-07-31T20:51:09.055Z,19.00
2022-07-31T20:53:37.647Z,19.10
2022-07-31T20:56:05.595Z,19.00
2022-07-31T20:58:32.433Z,19.00
2022-07-31T21:00:59.289Z,19.00
2022-07-31T21:03:26.206Z,19.00
2022-07-31T21:05:53.148Z,19.00
2022-07-31T21:08:19.978Z,19.00
2022-07-31T21:10:46.834Z,19.00
2022-07-31T21:13:14.389Z,19.00
2022-07-31T21:15:45.138Z,19.00
2022-07-31T21:18:13.533Z,19.00
2022-07-31T21:20:51.263Z,18.90
2022-07-31T21:23:25.208Z,18.90
2022-07-31T21:25:57.021Z,18.90
2022-07-31T21:28:25.566Z,18.90
2022-07-31T21:30:56.258Z,18.90
2022-07-31T21:33:28.009Z,18.90
2022-07-31T21:35:55.568Z,18.90
2022-07-31T21:38:22.488Z,18.90
2022-07-31T21:40:50.168Z,18.80
2022-07-31T21:43:22.313Z,18.80
2022-07-31T21:45:55.178Z,18.90
2022-07-31T21:48:25.578Z,18.90
2022-07-31T21:50:53.351Z,19.00
2022-07-31T21:53:20.268Z,18.90
2022-07-31T21:55:47.163Z,18.90
2022-07-31T21:58:14.219Z,18.90
2022-07-31T22:00:41.265Z,18.90
2022-07-31T22:03:08.245Z,18.90
2022-07-31T22:05:53.617Z,18.90
2022-07-31T22:08:47.575Z,19.00
2022-07-31T22:11:14.387Z,19.00
2022-07-31T22:13:41.193Z,18.90
2022-07-31T22:16:09.407Z,18.90
2022-07-31T22:18:36.592Z,18.90
2022-07-31T22:21:06.458Z,18.90
2022-07-31T22:23:33.785Z,18.90
2022-07-31T22:26:01.214Z,19.00
2022-07-31T22:28:28.687Z,19.00
2022-07-31T22:30:57.192Z,18.90
2022-07-31T22:33:24.534Z,18.90
2022-07-31T22:35:58.290Z,18.90
2022-07-31T22:38:29.079Z,18.90
2022-07-31T22:40:56.195Z,19.00
2022-07-31T22:44:10.710Z,19.00
2022-07-31T22:46:12.016Z,18.90
2022-07-31T22:48:40.728Z,18.90
2022-07-31T22:51:08.783Z,18.90
2022-07-31T22:53:36.273Z,18.90
2022-07-31T22:56:03.619Z,18.90
2022-07-31T22:58:30.542Z,18.80
2022-07-31T23:00:57.466Z,18.90
2022-07-31T23:03:24.402Z,18.80
2022-07-31T23:06:02.759Z,18.90
2022-07-31T23:08:38.145Z,18.90
2022-07-31T23:11:04.947Z,18.80
2022-07-31T23:13:31.715Z,18.90
2022-07-31T23:15:58.596Z,18.80
2022-07-31T23:18:26.737Z,18.80
2022-07-31T23:20:53.547Z,18.80
2022-07-31T23:23:20.394Z,18.70
2022-07-31T23:25:47.170Z,18.70
2022-07-31T23:28:13.973Z,18.70
2022-07-31T23:30:41.041Z,18.80
2022-07-31T23:33:07.892Z,18.70
2022-07-31T23:35:34.719Z,18.70
2022-07-31T23:38:01.586Z,18.70
2022-07-31T23:40:28.419Z,18.70
2022-07-31T23:42:55.226Z,18.70
2022-07-31T23:45:23.420Z,18.80
2022-07-31T23:47:50.932Z,18.80
2022-07-31T23:50:18.000Z,18.70
2022-07-31T23:52:45.255Z,18.70
2022-07-31T23:55:12.196Z,18.70
2022-07-31T23:57:40.163Z,18.70
